Ginga — JJ4054 — position and weather

sailwx.info

Track history (hours):
 
Tides and Currents Weather Stations Pressure Air Temp Water Temp Dewpoint Dewpoint Depression Visibility Wind Speed Wind Dir Waves Ship Positions

Ginga

Last reported at 2015-Jan-25 03:23 UTC. Time now 2015-Jan-25 20:27 UTC.
Position N 34°39' E 135°09'.

Length 28 m; draft 1.6 m.

Type: Other ship. MMSI: 431301704.

Date/timePositionNaut miles runAvg speedWind from/ knotsBaromVisibWave heightAir tempDewpointWater temp
2015-Jan-25 03:23N 34°39' E 135°09'7 9.0
2015-Jan-25 02:33N 34°37' E 135°01'1 0.9
2015-Jan-25 01:32N 34°38' E 135°02'7 0.2
2015-Jan-23 07:03N 34°39' E 135°09'611.3
2015-Jan-23 06:33N 34°34' E 135°06'8 7.2
2015-Jan-23 05:29N 34°37' E 134°58'0 0.1
2015-Jan-23 01:28N 34°37' E 134°57'7 8.1
2015-Jan-23 00:33N 34°36' E 135°06'3 1.4
2015-Jan-22 22:20N 34°37' E 135°03'1 1.4
2015-Jan-22 21:33N 34°37' E 135°02'6 6.2
2015-Jan-22 20:33N 34°33' E 135°08'6 0.6
2015-Jan-22 10:26N 34°39' E 135°09'11 9.6
2015-Jan-22 09:16N 34°36' E 134°57'5 6.9
2015-Jan-22 08:31N 34°38' E 135°02'2 0.3
2015-Jan-22 01:33N 34°36' E 135°03'5 4.2
2015-Jan-22 00:20N 34°37' E 134°57'5 1.8
2015-Jan-21 21:30N 34°38' E 135°03'1 1.1
2015-Jan-21 20:34N 34°37' E 135°02'5 5.3
2015-Jan-21 19:33N 34°36' E 135°09'1 0.1
2015-Jan-21 00:33N 34°38' E 135°09'10 9.8
2015-Jan-20 23:33N 34°37' E 134°57'9 9.1
2015-Jan-20 22:33N 34°36' E 135°08'4 4.3
2015-Jan-20 21:32N 34°37' E 135°03'2 2.5
2015-Jan-20 20:33N 34°35' E 135°04'6 5.8
2015-Jan-20 19:33N 34°39' E 135°10'0 0.1
2015-Jan-20 10:26N 34°39' E 135°09'6 6.9
2015-Jan-20 09:33N 34°36' E 135°03'4 3.9
2015-Jan-20 08:26N 34°37' E 134°58'910.6
2015-Jan-20 07:33N 34°39' E 135°09'0 0.0
2015-Jan-19 07:33N 34°39' E 135°09'1110.1
2015-Jan-19 06:25N 34°36' E 134°56'6 5.6
2015-Jan-19 05:25N 34°33' E 135°02'1 0.8
2015-Jan-19 04:33N 34°33' E 135°01'4 3.9
2015-Jan-19 03:33N 34°36' E 134°58'2 0.3
2015-Jan-18 20:24N 34°36' E 135°01'1 1.5
2015-Jan-18 19:32N 34°37' E 135°01'7 6.9
2015-Jan-18 18:33N 34°37' E 135°09'2 2.2
2015-Jan-18 17:33N 34°39' E 135°09'5 0.3
2015-Jan-18 02:31N 34°34' E 135°08'13 6.5
2015-Jan-18 00:25N 34°22' E 135°01'1315.2
2015-Jan-17 23:33N 34°30' E 135°14'9 8.6
2015-Jan-17 22:33N 34°33' E 135°24'2 1.5
2015-Jan-17 21:33N 34°34' E 135°22'1211.7
2015-Jan-17 20:33N 34°39' E 135°09'0 0.0
2015-Jan-17 04:19N 34°39' E 135°09'6 8.0
2015-Jan-17 03:33N 34°36' E 135°16'8 7.6
2015-Jan-17 02:32N 34°33' E 135°25'1 0.7
2015-Jan-17 01:33N 34°33' E 135°24'9 9.4
2015-Jan-17 00:34N 34°37' E 135°14'4 4.0
2015-Jan-16 23:33N 34°39' E 135°09'0 0.0
2015-Jan-16 03:04N 34°39' E 135°09'2 3.0
2015-Jan-16 02:33N 34°40' E 135°11'1212.4
2015-Jan-16 01:33N 34°33' E 135°23'4 3.3
2015-Jan-16 00:19N 34°33' E 135°18'7 9.0
2015-Jan-15 23:32N 34°29' E 135°12'2110.3
2015-Jan-15 21:33N 34°11' E 135°00'11 0.8
2015-Jan-15 07:33N 34°22' E 135°00'1413.8
2015-Jan-15 06:33N 34°30' E 135°13'9 8.9
2015-Jan-15 05:32N 34°33' E 135°24'0 0.3
2015-Jan-15 04:32N 34°34' E 135°24'9 9.1
2015-Jan-15 03:32N 34°35' E 135°13'  
Track history (hours):
 
Tides and Currents Weather Stations Pressure Air Temp Water Temp Dewpoint Dewpoint Depression Visibility Wind Speed Wind Dir Waves Ship Positions

Ginga

Last reported at 2015-Jan-25 03:23 UTC. Time now 2015-Jan-25 20:27 UTC.
Position N 34°39' E 135°09'.

Length 28 m; draft 1.6 m.

Type: Other ship. MMSI: 431301704.

Date/timePositionNaut miles runAvg speedWind from/ knotsBaromVisibWave heightAir tempDewpointWater temp
2015-Jan-25 03:23N 34°39' E 135°09'7 9.0
2015-Jan-25 02:33N 34°37' E 135°01'1 0.9
2015-Jan-25 01:32N 34°38' E 135°02'7 0.2
2015-Jan-23 07:03N 34°39' E 135°09'611.3
2015-Jan-23 06:33N 34°34' E 135°06'8 7.2
2015-Jan-23 05:29N 34°37' E 134°58'0 0.1
2015-Jan-23 01:28N 34°37' E 134°57'7 8.1
2015-Jan-23 00:33N 34°36' E 135°06'3 1.4
2015-Jan-22 22:20N 34°37' E 135°03'1 1.4
2015-Jan-22 21:33N 34°37' E 135°02'6 6.2
2015-Jan-22 20:33N 34°33' E 135°08'6 0.6
2015-Jan-22 10:26N 34°39' E 135°09'11 9.6
2015-Jan-22 09:16N 34°36' E 134°57'5 6.9
2015-Jan-22 08:31N 34°38' E 135°02'2 0.3
2015-Jan-22 01:33N 34°36' E 135°03'5 4.2
2015-Jan-22 00:20N 34°37' E 134°57'5 1.8
2015-Jan-21 21:30N 34°38' E 135°03'1 1.1
2015-Jan-21 20:34N 34°37' E 135°02'5 5.3
2015-Jan-21 19:33N 34°36' E 135°09'1 0.1
2015-Jan-21 00:33N 34°38' E 135°09'10 9.8
2015-Jan-20 23:33N 34°37' E 134°57'9 9.1
2015-Jan-20 22:33N 34°36' E 135°08'4 4.3
2015-Jan-20 21:32N 34°37' E 135°03'2 2.5
2015-Jan-20 20:33N 34°35' E 135°04'6 5.8
2015-Jan-20 19:33N 34°39' E 135°10'0 0.1
2015-Jan-20 10:26N 34°39' E 135°09'6 6.9
2015-Jan-20 09:33N 34°36' E 135°03'4 3.9
2015-Jan-20 08:26N 34°37' E 134°58'910.6
2015-Jan-20 07:33N 34°39' E 135°09'0 0.0
2015-Jan-19 07:33N 34°39' E 135°09'1110.1
2015-Jan-19 06:25N 34°36' E 134°56'6 5.6
2015-Jan-19 05:25N 34°33' E 135°02'1 0.8
2015-Jan-19 04:33N 34°33' E 135°01'4 3.9
2015-Jan-19 03:33N 34°36' E 134°58'2 0.3
2015-Jan-18 20:24N 34°36' E 135°01'1 1.5
2015-Jan-18 19:32N 34°37' E 135°01'7 6.9
2015-Jan-18 18:33N 34°37' E 135°09'2 2.2
2015-Jan-18 17:33N 34°39' E 135°09'5 0.3
2015-Jan-18 02:31N 34°34' E 135°08'13 6.5
2015-Jan-18 00:25N 34°22' E 135°01'1315.2
2015-Jan-17 23:33N 34°30' E 135°14'9 8.6
2015-Jan-17 22:33N 34°33' E 135°24'2 1.5
2015-Jan-17 21:33N 34°34' E 135°22'1211.7
2015-Jan-17 20:33N 34°39' E 135°09'0 0.0
2015-Jan-17 04:19N 34°39' E 135°09'6 8.0
2015-Jan-17 03:33N 34°36' E 135°16'8 7.6
2015-Jan-17 02:32N 34°33' E 135°25'1 0.7
2015-Jan-17 01:33N 34°33' E 135°24'9 9.4
2015-Jan-17 00:34N 34°37' E 135°14'4 4.0
2015-Jan-16 23:33N 34°39' E 135°09'0 0.0
2015-Jan-16 03:04N 34°39' E 135°09'2 3.0
2015-Jan-16 02:33N 34°40' E 135°11'1212.4
2015-Jan-16 01:33N 34°33' E 135°23'4 3.3
2015-Jan-16 00:19N 34°33' E 135°18'7 9.0
2015-Jan-15 23:32N 34°29' E 135°12'2110.3
2015-Jan-15 21:33N 34°11' E 135°00'11 0.8
2015-Jan-15 07:33N 34°22' E 135°00'1413.8
2015-Jan-15 06:33N 34°30' E 135°13'9 8.9
2015-Jan-15 05:32N 34°33' E 135°24'0 0.3
2015-Jan-15 04:32N 34°34' E 135°24'9 9.1
2015-Jan-15 03:32N 34°35' E 135°13'  

Dump ship's entire track history